createdAt,value
2019-05-20T00:02:25.832Z,99.90
2019-05-20T00:04:47.030Z,99.90
2019-05-20T00:07:12.125Z,99.90
2019-05-20T00:09:37.751Z,99.90
2019-05-20T00:12:03.689Z,99.90
2019-05-20T00:14:28.818Z,99.90
2019-05-20T00:16:53.926Z,99.90
2019-05-20T00:19:19.069Z,99.90
2019-05-20T00:21:44.161Z,99.90
2019-05-20T00:24:09.257Z,99.90
2019-05-20T00:26:34.388Z,99.90
2019-05-20T00:28:59.762Z,99.90
2019-05-20T00:31:24.889Z,99.90
2019-05-20T00:33:50.223Z,99.90
2019-05-20T00:36:15.353Z,99.90
2019-05-20T00:38:40.466Z,99.90
2019-05-20T00:41:05.606Z,99.90
2019-05-20T00:43:30.724Z,99.90
2019-05-20T00:45:55.850Z,99.90
2019-05-20T00:48:20.941Z,99.90
2019-05-20T00:50:46.069Z,99.90
2019-05-20T00:53:11.213Z,99.90
2019-05-20T00:55:39.079Z,99.90
2019-05-20T00:58:04.215Z,99.90
2019-05-20T01:00:29.438Z,99.90
2019-05-20T01:02:57.278Z,99.90
2019-05-20T01:05:21.511Z,99.90
2019-05-20T01:07:46.653Z,99.90
2019-05-20T01:10:11.864Z,99.90
2019-05-20T01:12:36.965Z,99.90
2019-05-20T01:15:02.094Z,99.90
2019-05-20T01:17:27.261Z,99.90
2019-05-20T01:19:52.402Z,99.90
2019-05-20T01:22:17.497Z,99.90
2019-05-20T01:24:42.686Z,99.90
2019-05-20T01:27:07.793Z,99.90
2019-05-20T01:29:32.954Z,99.90
2019-05-20T01:31:58.054Z,99.90
2019-05-20T01:34:24.258Z,99.90
2019-05-20T01:36:49.590Z,99.90
2019-05-20T01:39:14.689Z,99.90
2019-05-20T01:41:42.312Z,99.90
2019-05-20T01:44:07.410Z,99.90
2019-05-20T01:46:32.526Z,99.90
2019-05-20T01:48:57.630Z,99.90
2019-05-20T01:51:22.810Z,99.90
2019-05-20T01:53:48.004Z,99.90
2019-05-20T01:56:13.139Z,99.90
2019-05-20T01:58:39.707Z,99.90
2019-05-20T02:01:04.942Z,99.90
2019-05-20T02:03:32.130Z,99.90
2019-05-20T02:05:56.798Z,99.90
2019-05-20T02:08:21.919Z,99.90
2019-05-20T02:10:47.021Z,99.90
2019-05-20T02:13:12.161Z,99.90
2019-05-20T02:15:48.991Z,99.90
2019-05-20T02:18:15.295Z,99.90
2019-05-20T02:20:40.392Z,99.90
2019-05-20T02:23:15.419Z,99.90
2019-05-20T02:25:40.539Z,99.90
2019-05-20T02:28:05.955Z,99.90
2019-05-20T02:30:31.060Z,99.90
2019-05-20T02:32:56.156Z,99.90
2019-05-20T02:35:21.410Z,99.90
2019-05-20T02:37:46.525Z,99.90
2019-05-20T02:40:11.761Z,99.90
2019-05-20T02:42:36.960Z,99.90
2019-05-20T02:45:02.078Z,99.90
2019-05-20T02:47:27.202Z,99.90
2019-05-20T02:49:52.336Z,99.90
2019-05-20T02:52:17.439Z,99.90
2019-05-20T02:54:43.296Z,99.90
2019-05-20T02:57:08.405Z,99.90
2019-05-20T02:59:33.555Z,99.90
2019-05-20T03:01:58.650Z,99.90
2019-05-20T03:04:23.771Z,99.90
2019-05-20T03:06:48.990Z,99.90
2019-05-20T03:09:14.094Z,99.90
2019-05-20T03:11:39.489Z,99.90
2019-05-20T03:14:04.708Z,99.90
2019-05-20T03:16:29.875Z,99.90
2019-05-20T03:18:55.007Z,99.90
2019-05-20T03:21:20.117Z,99.90
2019-05-20T03:23:45.264Z,99.90
2019-05-20T03:26:10.364Z,99.90
2019-05-20T03:28:35.608Z,99.90
2019-05-20T03:31:00.709Z,99.90
2019-05-20T03:33:26.779Z,99.90
2019-05-20T03:35:52.080Z,99.90
2019-05-20T03:38:17.174Z,99.90
2019-05-20T03:40:42.283Z,99.90
2019-05-20T03:43:07.403Z,99.90
2019-05-20T03:45:33.051Z,99.90
2019-05-20T03:47:58.168Z,99.90
2019-05-20T03:50:23.386Z,99.90
2019-05-20T03:52:48.494Z,99.90
2019-05-20T03:55:13.702Z,99.90
2019-05-20T03:57:38.843Z,99.90
2019-05-20T04:00:05.332Z,99.90
2019-05-20T04:02:30.455Z,99.90
2019-05-20T04:05:02.051Z,99.90
2019-05-20T04:07:22.290Z,99.90
2019-05-20T04:09:47.394Z,99.90
2019-05-20T04:12:12.511Z,99.90
2019-05-20T04:14:37.610Z,99.90
2019-05-20T04:17:02.726Z,99.90
2019-05-20T04:19:28.113Z,99.90
2019-05-20T04:21:53.920Z,99.90
2019-05-20T04:24:19.118Z,99.90
2019-05-20T04:26:44.223Z,99.90
2019-05-20T04:29:09.439Z,99.90
2019-05-20T04:31:34.556Z,99.90
2019-05-20T04:33:59.681Z,99.90
2019-05-20T04:36:24.937Z,99.90
2019-05-20T04:38:50.232Z,99.90
2019-05-20T04:41:15.603Z,99.90
2019-05-20T04:43:40.715Z,99.90
2019-05-20T04:46:06.542Z,99.90
2019-05-20T04:48:31.642Z,99.90
2019-05-20T04:50:56.762Z,99.90
2019-05-20T04:53:21.926Z,99.90
2019-05-20T04:55:47.057Z,99.90
2019-05-20T04:58:12.157Z,99.90
2019-05-20T05:00:54.831Z,99.90
2019-05-20T05:03:19.904Z,99.90
2019-05-20T05:05:45.012Z,99.90
2019-05-20T05:08:10.146Z,99.90
2019-05-20T05:10:35.251Z,99.90
2019-05-20T05:13:00.377Z,99.90
2019-05-20T05:15:25.743Z,99.90
2019-05-20T05:17:50.879Z,99.90
2019-05-20T05:20:18.455Z,99.90
2019-05-20T05:22:42.841Z,99.90
2019-05-20T05:25:08.298Z,99.90
2019-05-20T05:27:33.437Z,99.90
2019-05-20T05:29:58.573Z,99.90
2019-05-20T05:32:42.191Z,99.90
2019-05-20T05:35:08.511Z,99.90
2019-05-20T05:37:33.788Z,99.90
2019-05-20T05:39:58.936Z,99.90
2019-05-20T05:42:24.024Z,99.90
2019-05-20T05:44:49.143Z,99.90
2019-05-20T05:47:14.254Z,99.90
2019-05-20T05:49:39.395Z,99.90
2019-05-20T05:52:04.499Z,99.90
2019-05-20T05:54:29.633Z,99.90
2019-05-20T05:56:54.730Z,99.90
2019-05-20T05:59:19.826Z,99.90
2019-05-20T06:01:44.947Z,99.90
2019-05-20T06:04:10.048Z,99.90
2019-05-20T06:06:35.474Z,99.90
2019-05-20T06:09:00.568Z,99.90
2019-05-20T06:11:25.702Z,99.90
2019-05-20T06:13:51.086Z,99.90
2019-05-20T06:16:16.304Z,99.90
2019-05-20T06:18:41.474Z,99.90
2019-05-20T06:21:06.590Z,99.90
2019-05-20T06:23:31.716Z,99.70
2019-05-20T06:25:56.826Z,99.80
2019-05-20T06:28:23.594Z,99.90
2019-05-20T06:30:48.910Z,99.30
2019-05-20T06:33:14.038Z,98.80
2019-05-20T06:35:39.159Z,97.80
2019-05-20T06:38:06.645Z,98.60
2019-05-20T06:40:32.237Z,97.50
2019-05-20T06:42:57.336Z,97.10
2019-05-20T06:45:22.461Z,96.90
2019-05-20T06:47:47.570Z,95.90
2019-05-20T06:50:12.722Z,96.20
2019-05-20T06:52:40.927Z,94.50
2019-05-20T06:55:07.088Z,94.50
2019-05-20T06:57:33.447Z,93.60
2019-05-20T06:59:58.534Z,93.10
2019-05-20T07:02:25.130Z,93.40
2019-05-20T07:04:50.362Z,92.70
2019-05-20T07:07:20.854Z,92.30
2019-05-20T07:09:42.749Z,91.90
2019-05-20T07:12:12.156Z,91.20
2019-05-20T07:14:38.823Z,90.50
2019-05-20T07:17:05.414Z,89.20
2019-05-20T07:19:30.546Z,89.70
2019-05-20T07:21:56.250Z,91.20
2019-05-20T07:24:21.380Z,91.20
2019-05-20T07:26:46.544Z,89.50
2019-05-20T07:29:11.687Z,89.30
2019-05-20T07:31:36.831Z,88.00
2019-05-20T07:34:02.015Z,89.10
2019-05-20T07:36:27.138Z,87.80
2019-05-20T07:38:52.446Z,89.60
2019-05-20T07:41:17.858Z,90.00
2019-05-20T07:43:42.952Z,88.00
2019-05-20T07:46:09.785Z,88.10
2019-05-20T07:48:35.191Z,87.60
2019-05-20T07:51:00.847Z,90.00
2019-05-20T07:53:26.088Z,90.00
2019-05-20T07:55:58.439Z,90.10
2019-05-20T07:58:27.247Z,89.20
2019-05-20T08:00:52.431Z,90.00
2019-05-20T08:03:17.527Z,89.30
2019-05-20T08:05:42.653Z,90.10
2019-05-20T08:08:07.834Z,88.80
2019-05-20T08:10:33.973Z,90.00
2019-05-20T08:12:59.150Z,90.00
2019-05-20T08:15:24.379Z,88.70
2019-05-20T08:17:49.469Z,88.60
2019-05-20T08:20:14.964Z,88.80
2019-05-20T08:22:40.075Z,88.60
2019-05-20T08:25:05.663Z,87.40
2019-05-20T08:27:30.789Z,88.70
2019-05-20T08:29:55.886Z,87.60
2019-05-20T08:32:21.023Z,89.90
2019-05-20T08:34:46.111Z,88.50
2019-05-20T08:37:11.341Z,88.10
2019-05-20T08:39:36.575Z,87.00
2019-05-20T08:42:01.759Z,86.50
2019-05-20T08:44:26.878Z,86.90
2019-05-20T08:46:51.991Z,85.80
2019-05-20T08:49:17.123Z,85.10
2019-05-20T08:51:42.236Z,85.60
2019-05-20T08:54:07.372Z,86.00
2019-05-20T08:56:32.472Z,87.30
2019-05-20T08:58:57.593Z,83.30
2019-05-20T09:01:22.681Z,84.30
2019-05-20T09:03:47.841Z,84.40
2019-05-20T09:06:13.468Z,84.40
2019-05-20T09:08:39.517Z,82.40
2019-05-20T09:11:04.627Z,83.40
2019-05-20T09:13:29.732Z,82.80
2019-05-20T09:15:55.107Z,84.00
2019-05-20T09:18:20.186Z,82.60
2019-05-20T09:20:45.322Z,81.60
2019-05-20T09:23:10.427Z,82.60
2019-05-20T09:25:36.446Z,80.60
2019-05-20T09:28:02.126Z,81.80
2019-05-20T09:30:27.308Z,79.50
2019-05-20T09:32:52.827Z,80.40
2019-05-20T09:35:17.910Z,80.60
2019-05-20T09:37:43.038Z,79.90
2019-05-20T09:40:09.798Z,79.80
2019-05-20T09:42:35.879Z,79.30
2019-05-20T09:45:03.030Z,79.50
2019-05-20T09:47:29.351Z,77.20
2019-05-20T09:49:54.440Z,77.10
2019-05-20T09:52:19.590Z,76.20
2019-05-20T09:54:45.624Z,76.10
2019-05-20T09:57:10.902Z,77.60
2019-05-20T09:59:43.118Z,76.60
2019-05-20T10:02:02.770Z,75.80
2019-05-20T10:04:27.891Z,75.80
2019-05-20T10:06:53.259Z,77.40
2019-05-20T10:09:18.401Z,75.50
2019-05-20T10:11:43.515Z,75.00
2019-05-20T10:14:08.734Z,76.10
2019-05-20T10:16:33.825Z,72.70
2019-05-20T10:18:58.970Z,73.70
2019-05-20T10:21:24.094Z,73.90
2019-05-20T10:23:49.210Z,74.90
2019-05-20T10:26:14.314Z,72.50
2019-05-20T10:28:41.900Z,74.20
2019-05-20T10:31:06.169Z,69.10
2019-05-20T10:33:31.275Z,69.40
2019-05-20T10:35:56.404Z,70.00
2019-05-20T10:38:21.533Z,68.80
2019-05-20T10:40:46.686Z,71.20
2019-05-20T10:43:12.015Z,70.30
2019-05-20T10:45:37.396Z,71.60
2019-05-20T10:48:03.445Z,70.70
2019-05-20T10:50:30.070Z,68.20
2019-05-20T10:52:55.403Z,69.20
2019-05-20T10:55:21.281Z,69.20
2019-05-20T10:57:46.634Z,67.60
2019-05-20T11:00:12.370Z,66.40
2019-05-20T11:02:38.333Z,67.10
2019-05-20T11:05:03.487Z,64.00
2019-05-20T11:07:30.633Z,67.40
2019-05-20T11:09:57.570Z,64.00
2019-05-20T11:12:22.693Z,69.50
2019-05-20T11:14:47.929Z,65.90
2019-05-20T11:17:15.211Z,65.20
2019-05-20T11:19:39.798Z,69.20
2019-05-20T11:22:06.688Z,66.00
2019-05-20T11:24:31.866Z,66.10
2019-05-20T11:26:56.973Z,64.40
2019-05-20T11:29:23.062Z,64.70
2019-05-20T11:31:49.161Z,63.80
2019-05-20T11:34:14.342Z,65.30
2019-05-20T11:36:39.478Z,65.70
2019-05-20T11:39:07.727Z,65.20
2019-05-20T11:41:52.819Z,64.70
2019-05-20T11:43:59.632Z,65.10
2019-05-20T11:46:24.791Z,67.40
2019-05-20T11:48:49.901Z,67.50
2019-05-20T11:51:14.990Z,67.00
2019-05-20T11:53:40.418Z,68.50
2019-05-20T11:56:05.610Z,68.70
2019-05-20T11:58:31.749Z,67.70
2019-05-20T12:00:56.932Z,69.20
2019-05-20T12:03:22.057Z,68.70
2019-05-20T12:05:49.053Z,69.40
2019-05-20T12:08:14.402Z,69.20
2019-05-20T12:10:39.522Z,70.30
2019-05-20T12:13:04.650Z,71.30
2019-05-20T12:15:29.774Z,70.70
2019-05-20T12:17:55.123Z,69.70
2019-05-20T12:20:20.320Z,68.00
2019-05-20T12:22:45.448Z,69.70
2019-05-20T12:25:10.868Z,70.20
2019-05-20T12:27:36.038Z,69.90
2019-05-20T12:30:01.138Z,69.80
2019-05-20T12:32:27.218Z,69.50
2019-05-20T12:34:52.647Z,71.80
2019-05-20T12:37:18.046Z,71.70
2019-05-20T12:39:43.410Z,70.40
2019-05-20T12:42:08.829Z,71.30
2019-05-20T12:44:34.062Z,73.40
2019-05-20T12:46:59.482Z,72.20
2019-05-20T12:49:24.738Z,72.00
2019-05-20T12:51:50.452Z,71.50
2019-05-20T12:54:15.556Z,71.80
2019-05-20T12:56:40.763Z,71.50
2019-05-20T12:59:06.422Z,71.40
2019-05-20T13:01:31.568Z,72.30
2019-05-20T13:03:56.646Z,72.40
2019-05-20T13:06:22.039Z,74.00
2019-05-20T13:08:47.214Z,72.50
2019-05-20T13:11:12.321Z,73.40
2019-05-20T13:13:37.457Z,74.00
2019-05-20T13:16:02.930Z,73.90
2019-05-20T13:18:28.535Z,72.30
2019-05-20T13:20:54.176Z,73.80
2019-05-20T13:23:19.331Z,70.90
2019-05-20T13:25:44.494Z,72.40
2019-05-20T13:28:10.044Z,72.00
2019-05-20T13:30:35.161Z,72.80
2019-05-20T13:33:00.546Z,73.10
2019-05-20T13:35:26.040Z,74.40
2019-05-20T13:37:52.082Z,73.30
2019-05-20T13:40:17.208Z,73.50
2019-05-20T13:42:42.586Z,73.60
2019-05-20T13:45:08.249Z,73.70
2019-05-20T13:47:33.412Z,74.00
2019-05-20T13:49:59.918Z,74.50
2019-05-20T13:52:26.686Z,75.80
2019-05-20T13:54:51.772Z,75.20
2019-05-20T13:57:17.680Z,76.00
2019-05-20T13:59:42.763Z,75.70
2019-05-20T14:02:07.886Z,77.10
2019-05-20T14:04:33.010Z,77.50
2019-05-20T14:06:58.159Z,77.40
2019-05-20T14:09:23.250Z,77.70
2019-05-20T14:11:48.366Z,78.60
2019-05-20T14:14:14.342Z,79.20
2019-05-20T14:16:39.580Z,79.00
2019-05-20T14:19:04.694Z,79.90
2019-05-20T14:21:29.870Z,79.80
2019-05-20T14:23:55.063Z,79.50
2019-05-20T14:26:20.179Z,80.40
2019-05-20T14:28:45.326Z,80.60
2019-05-20T14:31:10.423Z,80.60
2019-05-20T14:33:35.618Z,81.00
2019-05-20T14:36:00.717Z,81.20
2019-05-20T14:38:26.942Z,82.00
2019-05-20T14:40:52.042Z,82.00
2019-05-20T14:43:17.198Z,82.80
2019-05-20T14:45:42.341Z,85.30
2019-05-20T14:48:07.500Z,87.20
2019-05-20T14:50:32.694Z,88.30
2019-05-20T14:52:57.861Z,90.10
2019-05-20T14:55:23.170Z,90.00
2019-05-20T14:57:48.350Z,91.40
2019-05-20T15:00:13.784Z,93.00
2019-05-20T15:02:38.884Z,94.30
2019-05-20T15:05:04.324Z,94.90
2019-05-20T15:07:31.195Z,95.30
2019-05-20T15:09:56.218Z,95.50
2019-05-20T15:12:22.313Z,97.20
2019-05-20T15:14:47.427Z,97.90
2019-05-20T15:17:12.835Z,98.10
2019-05-20T15:19:37.954Z,99.30
2019-05-20T15:22:03.127Z,99.90
2019-05-20T15:24:29.496Z,99.90
2019-05-20T15:26:54.660Z,99.90
2019-05-20T15:29:28.058Z,99.90
2019-05-20T15:31:46.806Z,99.90
2019-05-20T15:34:12.028Z,99.90
2019-05-20T15:36:37.155Z,99.90
2019-05-20T15:39:02.383Z,99.90
2019-05-20T15:41:29.197Z,99.90
2019-05-20T15:43:54.434Z,99.90
2019-05-20T15:46:19.572Z,99.90
2019-05-20T15:48:44.826Z,99.90
2019-05-20T15:51:09.951Z,99.90
2019-05-20T15:53:35.070Z,99.90
2019-05-20T15:56:00.218Z,99.90
2019-05-20T15:58:25.402Z,99.90
2019-05-20T16:00:50.546Z,99.90
2019-05-20T16:03:16.648Z,99.90
2019-05-20T16:05:41.782Z,99.90
2019-05-20T16:08:06.898Z,99.90
2019-05-20T16:10:32.027Z,99.90
2019-05-20T16:12:57.216Z,99.90
2019-05-20T16:15:22.338Z,99.90
2019-05-20T16:17:48.632Z,99.90
2019-05-20T16:20:15.696Z,99.90
2019-05-20T16:22:41.366Z,99.90
2019-05-20T16:25:08.906Z,99.90
2019-05-20T16:27:34.286Z,99.90
2019-05-20T16:30:05.942Z,99.90
2019-05-20T16:32:26.270Z,99.90
2019-05-20T16:34:51.382Z,99.90
2019-05-20T16:37:16.816Z,99.90
2019-05-20T16:39:42.175Z,99.90
2019-05-20T16:42:07.319Z,99.90
2019-05-20T16:44:32.535Z,99.90
2019-05-20T16:46:58.181Z,99.90
2019-05-20T16:49:23.299Z,99.90
2019-05-20T16:51:48.455Z,99.90
2019-05-20T16:54:13.824Z,99.90
2019-05-20T16:56:39.242Z,99.90
2019-05-20T16:59:04.606Z,99.90
2019-05-20T17:01:29.794Z,99.90
2019-05-20T17:03:55.279Z,99.90
2019-05-20T17:06:20.898Z,99.90
2019-05-20T17:08:47.247Z,99.90
2019-05-20T17:11:12.381Z,99.90
2019-05-20T17:13:37.539Z,99.90
2019-05-20T17:16:02.645Z,99.90
2019-05-20T17:18:28.760Z,99.90
2019-05-20T17:20:54.085Z,99.90
2019-05-20T17:23:19.237Z,99.90
2019-05-20T17:25:44.355Z,99.90
2019-05-20T17:28:10.247Z,99.90
2019-05-20T17:30:44.826Z,99.90
2019-05-20T17:33:02.164Z,99.90
2019-05-20T17:35:27.322Z,99.90
2019-05-20T17:37:55.164Z,99.90
2019-05-20T17:40:19.866Z,99.90
2019-05-20T17:42:45.033Z,99.90
2019-05-20T17:45:11.171Z,99.90
2019-05-20T17:47:36.273Z,99.90
2019-05-20T17:50:01.518Z,99.90
2019-05-20T17:52:26.753Z,99.90
2019-05-20T17:54:51.876Z,99.90
2019-05-20T17:57:17.031Z,99.90
2019-05-20T17:59:42.537Z,99.90
2019-05-20T18:02:09.574Z,99.90
2019-05-20T18:04:34.712Z,99.90
2019-05-20T18:06:59.809Z,99.90
2019-05-20T18:09:26.749Z,99.90
2019-05-20T18:11:52.075Z,99.90
2019-05-20T18:14:17.182Z,99.90
2019-05-20T18:16:42.396Z,99.90
2019-05-20T18:19:07.522Z,99.90
2019-05-20T18:21:32.663Z,99.90
2019-05-20T18:23:57.965Z,99.90
2019-05-20T18:26:23.105Z,99.90
2019-05-20T18:28:48.325Z,99.90
2019-05-20T18:31:30.920Z,99.90
2019-05-20T18:33:40.698Z,99.90
2019-05-20T18:36:05.976Z,99.90
2019-05-20T18:38:31.154Z,99.90
2019-05-20T18:40:56.245Z,99.90
2019-05-20T18:43:21.374Z,99.90
2019-05-20T18:45:46.586Z,99.90
2019-05-20T18:48:11.721Z,99.90
2019-05-20T18:50:36.815Z,99.90
2019-05-20T18:53:02.790Z,99.90
2019-05-20T18:55:28.147Z,99.90
2019-05-20T18:57:53.249Z,99.90
2019-05-20T19:00:18.981Z,99.90
2019-05-20T19:02:44.149Z,99.90
2019-05-20T19:05:10.163Z,99.90
2019-05-20T19:07:35.484Z,99.90
2019-05-20T19:10:00.609Z,99.90
2019-05-20T19:12:27.043Z,99.90
2019-05-20T19:14:52.362Z,99.90
2019-05-20T19:17:17.517Z,99.90
2019-05-20T19:19:44.154Z,99.90
2019-05-20T19:22:09.677Z,99.90
2019-05-20T19:24:35.050Z,99.90
2019-05-20T19:27:00.218Z,99.90
2019-05-20T19:29:26.109Z,99.90
2019-05-20T19:32:01.366Z,99.90
2019-05-20T19:34:18.010Z,99.90
2019-05-20T19:36:43.130Z,99.90
2019-05-20T19:39:08.446Z,99.90
2019-05-20T19:41:35.307Z,99.90
2019-05-20T19:44:00.490Z,99.90
2019-05-20T19:46:25.769Z,99.90
2019-05-20T19:48:50.910Z,99.90
2019-05-20T19:51:16.009Z,99.90
2019-05-20T19:53:41.137Z,99.90
2019-05-20T19:56:06.263Z,99.90
2019-05-20T19:58:31.413Z,99.90
2019-05-20T20:00:56.893Z,99.90
2019-05-20T20:03:22.074Z,99.90
2019-05-20T20:05:47.232Z,99.90
2019-05-20T20:08:12.455Z,99.90
2019-05-20T20:10:37.919Z,99.90
2019-05-20T20:13:03.055Z,99.90
2019-05-20T20:15:28.515Z,99.90
2019-05-20T20:17:53.763Z,99.90
2019-05-20T20:20:18.886Z,99.90
2019-05-20T20:22:44.133Z,99.90
2019-05-20T20:25:09.455Z,99.90
2019-05-20T20:27:34.569Z,99.90
2019-05-20T20:29:59.737Z,99.90
2019-05-20T20:32:37.590Z,99.90
2019-05-20T20:34:51.879Z,99.90
2019-05-20T20:37:17.040Z,99.90
2019-05-20T20:39:42.439Z,99.90
2019-05-20T20:42:07.526Z,99.90
2019-05-20T20:44:33.655Z,99.90
2019-05-20T20:46:59.975Z,99.90
2019-05-20T20:49:25.110Z,99.90
2019-05-20T20:51:50.249Z,99.90
2019-05-20T20:54:15.342Z,99.90
2019-05-20T20:56:40.466Z,99.90
2019-05-20T20:59:05.645Z,99.90
2019-05-20T21:01:30.735Z,99.90
2019-05-20T21:03:56.846Z,99.90
2019-05-20T21:06:23.282Z,99.90
2019-05-20T21:08:48.675Z,99.90
2019-05-20T21:11:13.830Z,99.90
2019-05-20T21:13:39.320Z,99.90
2019-05-20T21:16:04.414Z,99.90
2019-05-20T21:18:29.629Z,99.90
2019-05-20T21:20:54.866Z,99.90
2019-05-20T21:23:19.980Z,99.90
2019-05-20T21:25:45.073Z,99.90
2019-05-20T21:28:10.311Z,99.90
2019-05-20T21:30:35.738Z,99.90
2019-05-20T21:33:09.198Z,99.90
2019-05-20T21:35:30.731Z,99.90
2019-05-20T21:37:55.863Z,99.90
2019-05-20T21:40:21.056Z,99.90
2019-05-20T21:42:46.222Z,99.90
2019-05-20T21:45:11.326Z,99.90
2019-05-20T21:47:36.830Z,99.90
2019-05-20T21:50:01.963Z,99.90
2019-05-20T21:52:27.079Z,99.90
2019-05-20T21:54:52.201Z,99.90
2019-05-20T21:57:17.433Z,99.90
2019-05-20T21:59:43.733Z,99.90
2019-05-20T22:02:08.912Z,99.90
2019-05-20T22:04:34.137Z,99.90
2019-05-20T22:06:59.246Z,99.90
2019-05-20T22:09:24.354Z,99.90
2019-05-20T22:11:49.537Z,99.90
2019-05-20T22:14:14.697Z,99.90
2019-05-20T22:16:40.068Z,99.90
2019-05-20T22:19:05.263Z,99.90
2019-05-20T22:21:36.437Z,99.90
2019-05-20T22:24:05.012Z,99.90
2019-05-20T22:26:31.352Z,99.90
2019-05-20T22:28:56.456Z,99.90
2019-05-20T22:31:36.431Z,99.90
2019-05-20T22:33:48.808Z,99.90
2019-05-20T22:36:14.181Z,99.90
2019-05-20T22:38:39.326Z,99.90
2019-05-20T22:41:04.561Z,99.90
2019-05-20T22:43:29.710Z,99.90
2019-05-20T22:45:55.087Z,99.90
2019-05-20T22:48:20.379Z,99.90
2019-05-20T22:50:48.666Z,99.90
2019-05-20T22:53:12.406Z,99.90
2019-05-20T22:55:37.672Z,99.90
2019-05-20T22:58:02.779Z,99.90
2019-05-20T23:00:29.324Z,99.90
2019-05-20T23:02:56.241Z,99.90
2019-05-20T23:05:21.367Z,99.90
2019-05-20T23:07:46.517Z,99.90
2019-05-20T23:10:11.894Z,99.90
2019-05-20T23:12:37.760Z,99.90
2019-05-20T23:15:03.068Z,99.90
2019-05-20T23:17:28.259Z,99.90
2019-05-20T23:19:53.906Z,99.90
2019-05-20T23:22:19.040Z,99.90
2019-05-20T23:24:44.207Z,99.90
2019-05-20T23:27:09.313Z,99.90
2019-05-20T23:29:34.480Z,99.90
2019-05-20T23:32:00.104Z,99.90
2019-05-20T23:34:25.525Z,99.90
2019-05-20T23:36:50.633Z,99.90
2019-05-20T23:39:15.847Z,99.90
2019-05-20T23:41:40.971Z,99.90
2019-05-20T23:44:06.106Z,99.90
2019-05-20T23:46:31.482Z,99.90
2019-05-20T23:48:56.621Z,99.90
2019-05-20T23:51:21.758Z,99.90
2019-05-20T23:53:46.882Z,99.90
2019-05-20T23:56:13.580Z,99.90
2019-05-20T23:58:38.686Z,99.90
